Jučerašnji rezultati

22.11.2014 16:00 Lester - Sanderlend 0:0 (0:0)
22.11.2014 16:00 Mančester Siti - Svonsi 2:1 (1:1)
22.11.2014 16:00 Njukastl - QPR 1:0 (0:0)
22.11.2014 16:00 Stouk - Barnli 1:2 (1:2)
22.11.2014 16:00 Čelsi - VBA 2:0 (2:0)
22.11.2014 16:00 Everton - Vest Hem 2:1 (1:0)
22.11.2014 18:30 Arsenal - Mančester Junajted 1:2 (0:0)
22.11.2014 19:00 Atalanta - Roma 1:2 (1:2)
22.11.2014 21:45 Lacio - Juventus 0:3 (0:1)
22.11.2014 16:00 Atletiko Madrid - Malaga 3:1 (2:0)
22.11.2014 18:00 Eibar - Real Madrid 0:4 (0:2)
22.11.2014 21:00 Barselona - Sevilja 5:1 (1:0)
22.11.2014 23:00 La Korunja - Real Sosijedad 0:0 (0:0)
23.11.2014 13:00 Valjekano - Selta 1:0 (1:0)
22.11.2014 15:30 Bajern - Hofenhajm 4:0 (2:0)
22.11.2014 15:30 Šalke - Volfsburg 3:2 (3:1)
22.11.2014 15:30 Paderborn - Borusija Dortmund 2:2 (0:2)
22.11.2014 16:30 Borusija Menhengladbah - Ajntraht 1:3 (1:0)
22.11.2014 16:30 Majnc - Frajburg 2:2 (1:1)
22.11.2014 16:30 Hanover - Bajer Leverkuzen 1:3 (0:0)
22.11.2014 19:30 Keln - Herta 1:2 (0:1)
22.11.2014 17:59 Bastija - Lion 0:0 (0:0)
22.11.2014 21:00 Gengamp - Ren 0:1 (0:1)
22.11.2014 21:00 Monako - Kaen 2:2 (1:0)
22.11.2014 21:00 Lorien - Lens 1:0 (1:0)
22.11.2014 21:00 Nica - Rems 0:0 (0:0)
22.11.2014 13:15 Hadersfild - Šefild Vensdi 0:0 (0:0)
22.11.2014 16:00 Vigan - Midlsboro 1:1 (1:0)
22.11.2014 16:00 Volvs - Notingem Forest 0:3 (0:0)
22.11.2014 16:00 Bornmaut - Ipsvič 2:2 (1:0)
22.11.2014 16:00 Blekburn - Lids 2:1 (0:1)
22.11.2014 16:00 Blekpul - Bolton 1:1 (0:0)
22.11.2014 16:00 Čarlton - Milvol 0:0 (0:0)
22.11.2014 16:00 Norič - Brajton 3:3 (1:1)
22.11.2014 16:00 Roteram - Birmingem 0:1 (0:0)
22.11.2014 16:00 Votford - Derbi 1:2 (0:1)
22.11.2014 16:00 Kolčester - Koventri 0:1 (0:0)
22.11.2014 16:00 Flitvud Taun - Volsol 0:1 (0:1)
22.11.2014 17:00 Ročdejl - Donkaster 1:3 (1:1)
22.11.2014 17:00 Šefild Junajted - Oldam 1:1 (0:1)
22.11.2014 17:00 Bristol Siti - Preston 0:1 (0:1)
22.11.2014 17:00 Česterfild - Barnsli 2:1 (1:0)
22.11.2014 17:00 Kravli - Skantorp 2:2 (0:1)
22.11.2014 17:00 Nots Kaunti - Jeovil 1:2 (0:0)
22.11.2014 17:00 Piterboro - Svindon 1:2 (0:1)
22.11.2014 16:00 Hartlpul - Jork 1:3 (1:0)
22.11.2014 17:00 Akrington - Kembridž 2:1 (1:0)
22.11.2014 17:00 Barton - Luton 1:0 (0:0)
22.11.2014 17:00 Buri - Newport 1:3 (0:2)
22.11.2014 17:00 Čeltenam - Vikomb 1:4 (1:2)
22.11.2014 17:00 Dag & Red - Karlajl 4:2 (3:1)
22.11.2014 17:00 Eksiter - Šruzberi 3:2 (0:2)
22.11.2014 17:00 Mensfild - Plimut 1:0 (1:0)
22.11.2014 17:00 Nortempton - Stivinedž 1:0 (1:0)
22.11.2014 17:00 Portsmut - Morekamb 3:0 (1:0)
22.11.2014 17:00 Tranmer - Sautend 1:2 (0:2)
22.11.2014 16:00 Aldersot - Istli 0:2 (0:1)
22.11.2014 16:00 Čester - Bristol Rovers 2:2 (0:0)
22.11.2014 16:00 Maklsfild - Alfreton 2:0 (1:0)
22.11.2014 16:00 Nuneaton - Sautport 2:3 (1:2)
22.11.2014 16:00 Torki - Gejtshed 2:2 (1:0)
22.11.2014 16:00 Voking - Barnet 1:1 (0:1)
22.11.2014 16:00 Reksam - Altrinkam 2:3 (2:0)
22.11.2014 17:00 Grimzbi - Kiderminster 0:2 (0:1)
22.11.2014 17:00 Linkoln - Dartford 1:0 (1:0)
22.11.2014 17:00 Welling - Halifaks 2:1 (1:1)
22.11.2014 15:00 Bari - Trapani 2:1 (1:0)
22.11.2014 16:00 Avelino - Vareze 0:0 (0:0)
22.11.2014 16:00 Modena - Peskara 2:0 (0:0)
22.11.2014 16:00 Specia - Bolonja 1:1 (0:0)
22.11.2014 16:00 Lanciano - Krotone 1:1 (1:1)
22.11.2014 16:00 Perudja - Ternana 2:2 (1:1)
22.11.2014 16:00 Vicenca - Citadela 1:1 (0:1)
22.11.2014 14:00 FSV Frankfurt - Braunšvajg 0:3 (0:2)
22.11.2014 14:00 Union Berlin - Minhen 1860 1:4 (0:2)
22.11.2014 14:59 Platanias - Panionios 0:0 (0:0)
22.11.2014 17:14 Pantrakikos - Atromitos 0:0 (0:0)
22.11.2014 18:59 Šarlroa - Anderleht 3:1 (1:1)
22.11.2014 21:00 Gent - Serkl Briž 4:0 (1:0)
22.11.2014 21:00 Lokeren - Vesterlo 0:0 (0:0)
22.11.2014 21:00 Muskron - Lirs 2:1 (2:1)
22.11.2014 21:29 Briž - Rs Vasland 4:2 (1:1)
22.11.2014 14:59 Avr - Sošo 1:1 (1:1)
22.11.2014 17:59 Esbjerg - Hobro 4:2 (1:1)
22.11.2014 20:30 FK Kopenhagen - Silkeborg 1:0 (1:0)
22.11.2014 17:59 Teplice - Dukla 1:0 (0:0)
22.11.2014 17:59 Brno - Pribram 1:0 (1:0)
22.11.2014 21:15 Ostrava - Jablonec 1:2 (0:1)
22.11.2014 15:00 Dinamo Zagreb - Hajduk 0:0 (0:0)
22.11.2014 17:59 Zadar - Rijeka 0:1 (0:0)
22.11.2014 23:29 Internacional - Atletiko MG 2:1 (1:1)
22.11.2014 06:00 Tokushima - Tosu 0:1 (0:0)
22.11.2014 06:00 Urava - Gamba 0:2 (0:0)
22.11.2014 06:00 Kofu - Hirošima 2:0 (0:0)
22.11.2014 06:00 Vissel kobe - Jokohama 1:2 (1:1)
22.11.2014 09:59 Omija - Kašiva Rejsol 1:2 (1:1)
22.11.2014 09:59 Šimicu - Nagoja 2:2 (1:1)
22.11.2014 12:00 Naftan - Dinamo Minsk 1:1 (1:1)
22.11.2014 12:00 Bate Borisov - Gomel 4:0 (3:0)
22.11.2014 17:00 Grodig - Rapid Beč 3:1 (2:1)
22.11.2014 19:29 Rid - Altah 2:1 (1:0)
22.11.2014 19:29 FK Viner Nojštat - Volfsberger 2:0 (0:0)
22.11.2014 19:29 Austrija Beč - Admira 4:0 (0:0)
22.11.2014 01:00 Huačipato - Union Espanjola 1:3 (1:3)
22.11.2014 12:15 Černo More - Liteks 0:3 (0:1)
22.11.2014 13:30 Lokomotiva Plovdiv - Marek 1:0 (0:0)
22.11.2014 15:00 CSKA Sofija - Ludogorec 1:1 (1:1)
22.11.2014 13:00 Rad - Vojvodina 0:0 (0:0)
22.11.2014 13:00 Donji Srem - Spartak Subotica 1:1 (0:0)
22.11.2014 13:00 Radnički Kragujevac - Crvena Zvezda 0:0 (0:0)
22.11.2014 17:00 Borac C. - Radnicki Niš 0:0 (0:0)
22.11.2014 18:59 Virton - Eupen 2:0 (0:0)
22.11.2014 21:00 Hejst - Woluwe zaventem 2:1 (0:1)
22.11.2014 21:00 Oud Heverle - Alst 0:0 (0:0)
22.11.2014 15:00 Omonia - AEL 2:0 (1:0)
22.11.2014 16:00 Doksa Katokopias - Anortoziz Famagusta 0:4 (0:2)
22.11.2014 21:59 Atletiko Rafaela - San Lorenco 2:0 (0:0)
22.11.2014 00:10 Velez - Godoj Kruz 1:4 (1:2)
22.11.2014 14:59 Volfsburg II - Sent Pauli II 3:0 (1:0)
22.11.2014 14:59 Lubeck - Havelse 2:2 (1:1)
22.11.2014 16:00 Kolvin Bej - Gločester Siti 3:1 (3:1)
22.11.2014 16:00 Gisli - Barou 2:3 (0:3)
22.11.2014 16:00 Hednesford - Temvort 2:3 (1:2)
22.11.2014 16:00 Stelibridž - Oksford Siti 0:2 (0:1)
22.11.2014 14:59 Munster - Unterhahing 2:0 (1:0)
22.11.2014 14:59 Regensburg - Bilefeld 0:1 (0:1)
22.11.2014 14:59 Erfurt - Štutgarter Kikers 1:1 (0:0)
22.11.2014 14:59 Holštajn Kil - Duisburg 1:0 (0:0)

Komentari

blog comments powered by Disqus